createdAt,value
2022-08-12T00:03:39.204Z,60.28
2022-08-12T00:14:25.571Z,60.30
2022-08-12T00:25:18.802Z,60.23
2022-08-12T00:36:32.339Z,60.04
2022-08-12T00:47:02.762Z,60.45
2022-08-12T00:57:36.186Z,60.07
2022-08-12T01:08:23.317Z,60.48
2022-08-12T01:18:55.360Z,60.61
2022-08-12T01:29:33.184Z,60.09
2022-08-12T01:40:33.494Z,60.21
2022-08-12T01:51:11.599Z,60.28
2022-08-12T02:02:05.315Z,60.56
2022-08-12T02:12:47.873Z,60.47
2022-08-12T02:23:20.910Z,60.42
2022-08-12T02:33:50.582Z,60.47
2022-08-12T02:44:22.993Z,60.60
2022-08-12T02:54:56.979Z,59.92
2022-08-12T03:05:27.354Z,60.70
2022-08-12T03:15:59.096Z,60.17
2022-08-12T03:26:32.001Z,60.21
2022-08-12T03:37:03.305Z,60.27
2022-08-12T03:47:53.248Z,59.79
2022-08-12T03:58:40.349Z,60.35
2022-08-12T04:09:14.585Z,60.06
2022-08-12T04:19:46.881Z,60.40
2022-08-12T04:30:33.217Z,60.58
2022-08-12T04:41:03.284Z,62.40
2022-08-12T04:51:34.300Z,63.92
2022-08-12T05:02:03.796Z,65.41
2022-08-12T05:12:44.801Z,66.57
2022-08-12T05:23:15.886Z,66.82
2022-08-12T05:33:46.265Z,66.23
2022-08-12T05:44:16.807Z,65.41
2022-08-12T05:54:57.447Z,63.43
2022-08-12T06:05:27.175Z,61.72
2022-08-12T06:15:56.573Z,59.94
2022-08-12T06:26:25.695Z,59.71
2022-08-12T06:36:55.750Z,58.32
2022-08-12T06:47:25.078Z,56.81
2022-08-12T06:58:08.000Z,56.31
2022-08-12T07:08:40.943Z,55.74
2022-08-12T07:19:10.438Z,54.58
2022-08-12T07:29:59.989Z,54.35
2022-08-12T07:40:30.185Z,55.51
2022-08-12T07:50:59.189Z,55.22
2022-08-12T08:01:28.676Z,54.42
2022-08-12T08:12:19.383Z,55.65
2022-08-12T08:22:49.074Z,55.49
2022-08-12T08:33:23.406Z,54.62
2022-08-12T08:43:55.963Z,54.58
2022-08-12T08:54:25.919Z,55.25
2022-08-12T09:05:12.892Z,54.83
2022-08-12T09:15:51.397Z,53.76
2022-08-12T09:26:28.782Z,52.82
2022-08-12T09:37:02.894Z,51.62
2022-08-12T09:47:56.954Z,51.35
2022-08-12T09:58:57.729Z,51.20
2022-08-12T10:09:20.327Z,50.61
2022-08-12T10:19:53.331Z,50.13
2022-08-12T10:30:39.945Z,49.93
2022-08-12T10:41:57.121Z,49.28
2022-08-12T10:52:34.377Z,49.41
2022-08-12T11:04:27.373Z,49.12
2022-08-12T11:13:59.897Z,48.11
2022-08-12T11:24:32.385Z,47.71
2022-08-12T11:35:02.923Z,47.60
2022-08-12T11:45:39.024Z,46.90
2022-08-12T11:56:07.135Z,47.40
2022-08-12T12:06:36.429Z,47.08
2022-08-12T12:17:06.094Z,46.22
2022-08-12T12:28:05.874Z,45.44
2022-08-12T12:38:36.327Z,45.28
2022-08-12T12:49:11.028Z,44.39
2022-08-12T13:00:02.253Z,44.80
2022-08-12T13:10:36.621Z,44.71
2022-08-12T13:21:15.520Z,43.80
2022-08-12T13:32:19.264Z,43.39
2022-08-12T13:42:51.042Z,42.74
2022-08-12T13:53:24.388Z,42.82
2022-08-12T14:04:11.726Z,42.86
2022-08-12T14:14:41.514Z,42.00
2022-08-12T14:25:11.845Z,41.29
2022-08-12T14:35:48.605Z,41.85
2022-08-12T14:46:20.151Z,41.86
2022-08-12T14:57:20.181Z,41.90
2022-08-12T15:07:50.937Z,42.37
2022-08-12T15:18:24.362Z,42.13
2022-08-12T15:28:55.486Z,42.11
2022-08-12T15:39:24.905Z,41.99
2022-08-12T15:50:00.847Z,41.61
2022-08-12T16:00:33.619Z,41.33
2022-08-12T16:11:14.436Z,41.54
2022-08-12T16:21:52.024Z,40.73
2022-08-12T16:32:31.461Z,40.57
2022-08-12T16:43:12.907Z,39.90
2022-08-12T16:53:45.531Z,39.41
2022-08-12T17:04:15.498Z,40.06
2022-08-12T17:14:47.246Z,40.58
2022-08-12T17:25:24.299Z,41.13
2022-08-12T17:35:53.734Z,41.46
2022-08-12T17:46:31.958Z,41.90
2022-08-12T17:57:12.141Z,42.39
2022-08-12T18:07:47.265Z,43.34
2022-08-12T18:18:19.756Z,44.12
2022-08-12T18:28:50.117Z,45.10
2022-08-12T18:39:20.166Z,45.86
2022-08-12T18:49:49.901Z,46.66
2022-08-12T19:00:22.034Z,47.40
2022-08-12T19:10:53.515Z,48.30
2022-08-12T19:21:23.583Z,48.91
2022-08-12T19:31:57.474Z,49.93
2022-08-12T19:42:29.369Z,50.77
2022-08-12T19:52:59.468Z,50.93
2022-08-12T20:03:38.326Z,51.72
2022-08-12T20:14:10.236Z,52.31
2022-08-12T20:24:39.984Z,53.09
2022-08-12T20:35:12.464Z,53.61
2022-08-12T20:45:51.069Z,53.97
2022-08-12T20:56:34.915Z,54.79
2022-08-12T21:07:09.681Z,55.32
2022-08-12T21:18:00.726Z,55.75
2022-08-12T21:28:32.034Z,56.49
2022-08-12T21:39:18.505Z,57.11
2022-08-12T21:49:55.091Z,57.43
2022-08-12T22:00:33.279Z,57.85
2022-08-12T22:11:03.262Z,57.85
2022-08-12T22:21:32.724Z,58.08
2022-08-12T22:32:18.046Z,58.40
2022-08-12T22:43:07.139Z,58.86
2022-08-12T22:53:44.733Z,59.25
2022-08-12T23:04:28.049Z,59.53
2022-08-12T23:14:57.907Z,59.87
2022-08-12T23:25:54.882Z,60.14
2022-08-12T23:36:17.667Z,60.44
2022-08-12T23:47:03.822Z,61.07
2022-08-12T23:58:18.328Z,61.77
